createdAt,value
2022-11-07T00:00:10.473Z,100114.81
2022-11-07T00:02:36.929Z,100115.84
2022-11-07T00:05:03.892Z,100109.44
2022-11-07T00:07:30.348Z,100105.56
2022-11-07T00:09:56.792Z,100104.03
2022-11-07T00:12:23.256Z,100105.09
2022-11-07T00:14:49.713Z,100101.53
2022-11-07T00:17:18.187Z,100110.34
2022-11-07T00:19:44.649Z,100098.59
2022-11-07T00:22:11.106Z,100091.84
2022-11-07T00:24:37.514Z,100092.66
2022-11-07T00:27:04.081Z,100088.88
2022-11-07T00:29:30.593Z,100079.28
2022-11-07T00:31:57.025Z,100067.81
2022-11-07T00:34:23.437Z,100068.06
2022-11-07T00:36:49.897Z,100062.63
2022-11-07T00:39:16.462Z,100057.00
2022-11-07T00:41:43.150Z,100060.28
2022-11-07T00:44:09.726Z,100050.84
2022-11-07T00:46:36.296Z,100055.16
2022-11-07T00:49:02.750Z,100038.28
2022-11-07T00:51:29.618Z,100041.56
2022-11-07T00:53:56.145Z,100036.53
2022-11-07T00:56:24.557Z,100033.09
2022-11-07T00:58:55.506Z,100029.00
2022-11-07T01:01:25.225Z,100030.22
2022-11-07T01:04:10.659Z,100036.22
2022-11-07T01:06:39.856Z,100025.19
2022-11-07T01:09:11.740Z,100031.19
2022-11-07T01:11:39.234Z,100039.56
2022-11-07T01:14:06.221Z,100034.78
2022-11-07T01:16:35.326Z,100034.56
2022-11-07T01:19:03.072Z,100037.66
2022-11-07T01:21:29.719Z,100038.75
2022-11-07T01:23:56.313Z,100044.13
2022-11-07T01:26:22.846Z,100036.22
2022-11-07T01:28:49.286Z,100044.75
2022-11-07T01:31:16.886Z,100048.22
2022-11-07T01:33:43.322Z,100040.28
2022-11-07T01:36:12.292Z,100034.75
2022-11-07T01:38:40.848Z,100034.50
2022-11-07T01:41:21.879Z,100037.63
2022-11-07T01:43:58.889Z,100035.69
2022-11-07T01:46:29.268Z,100032.13
2022-11-07T01:49:11.636Z,100032.97
2022-11-07T01:51:45.925Z,100025.03
2022-11-07T01:54:13.403Z,100028.75
2022-11-07T01:56:42.160Z,100022.50
2022-11-07T01:59:11.119Z,100017.50
2022-11-07T02:01:37.667Z,100014.59
2022-11-07T02:04:04.962Z,100018.22
2022-11-07T02:06:40.018Z,100017.63
2022-11-07T02:09:06.518Z,100013.66
2022-11-07T02:11:33.597Z,100009.09
2022-11-07T02:14:00.016Z,99996.63
2022-11-07T02:16:27.814Z,100000.47
2022-11-07T02:18:54.710Z,100002.75
2022-11-07T02:21:36.921Z,99988.72
2022-11-07T02:24:08.932Z,99986.34
2022-11-07T02:26:36.843Z,99987.53
2022-11-07T02:29:09.078Z,99974.34
2022-11-07T02:31:35.602Z,99977.97
2022-11-07T02:34:29.596Z,99968.00
2022-11-07T02:36:56.689Z,99970.88
2022-11-07T02:39:23.234Z,99951.91
2022-11-07T02:41:50.395Z,99942.69
2022-11-07T02:44:17.216Z,99929.06
2022-11-07T02:46:43.661Z,99927.34
2022-11-07T02:49:10.159Z,99923.88
2022-11-07T02:51:36.586Z,99916.81
2022-11-07T02:54:03.167Z,99922.31
2022-11-07T02:56:29.828Z,99926.72
2022-11-07T02:58:56.547Z,99919.28
2022-11-07T03:01:23.201Z,99935.31
2022-11-07T03:03:50.863Z,99929.66
2022-11-07T03:06:19.983Z,99908.28
2022-11-07T03:08:46.908Z,99912.75
2022-11-07T03:11:13.942Z,99912.41
2022-11-07T03:13:40.463Z,99902.56
2022-11-07T03:16:08.921Z,99901.34
2022-11-07T03:18:36.029Z,99891.63
2022-11-07T03:21:02.766Z,99891.13
2022-11-07T03:23:29.486Z,99900.09
2022-11-07T03:25:56.140Z,99891.22
2022-11-07T03:28:23.102Z,99889.78
2022-11-07T03:30:49.569Z,99882.56
2022-11-07T03:33:16.481Z,99880.91
2022-11-07T03:35:43.583Z,99885.94
2022-11-07T03:38:10.785Z,99888.69
2022-11-07T03:40:37.546Z,99889.53
2022-11-07T03:43:04.105Z,99880.66
2022-11-07T03:45:31.237Z,99896.16
2022-11-07T03:47:57.664Z,99887.34
2022-11-07T03:50:24.067Z,99889.53
2022-11-07T03:52:50.497Z,99886.53
2022-11-07T03:55:18.201Z,99889.72
2022-11-07T03:57:45.412Z,99887.25
2022-11-07T04:00:12.568Z,99880.53
2022-11-07T04:02:39.183Z,99887.16
2022-11-07T04:05:06.378Z,99894.56
2022-11-07T04:07:32.805Z,99890.03
2022-11-07T04:09:59.229Z,99880.31
2022-11-07T04:12:44.757Z,99877.56
2022-11-07T04:15:30.076Z,99878.38
2022-11-07T04:17:56.816Z,99877.19
2022-11-07T04:20:23.351Z,99883.91
2022-11-07T04:22:49.829Z,99888.25
2022-11-07T04:25:16.374Z,99886.78
2022-11-07T04:27:42.979Z,99885.31
2022-11-07T04:30:21.891Z,99884.22
2022-11-07T04:32:56.011Z,99881.38
2022-11-07T04:35:24.580Z,99876.69
2022-11-07T04:37:51.401Z,99878.63
2022-11-07T04:40:18.501Z,99872.13
2022-11-07T04:42:45.794Z,99865.19
2022-11-07T04:45:13.125Z,99869.88
2022-11-07T04:47:40.727Z,99870.47
2022-11-07T04:50:10.278Z,99870.91
2022-11-07T04:52:37.093Z,99864.63
2022-11-07T04:55:04.028Z,99862.84
2022-11-07T04:57:30.466Z,99856.72
2022-11-07T04:59:57.040Z,99850.88
2022-11-07T05:02:28.211Z,99858.91
2022-11-07T05:04:54.790Z,99844.22
2022-11-07T05:07:21.322Z,99840.88
2022-11-07T05:09:48.072Z,99836.38
2022-11-07T05:12:14.561Z,99835.72
2022-11-07T05:14:41.212Z,99839.13
2022-11-07T05:17:07.707Z,99837.31
2022-11-07T05:19:34.201Z,99841.38
2022-11-07T05:22:19.841Z,99831.22
2022-11-07T05:24:46.253Z,99825.94
2022-11-07T05:27:19.580Z,99841.50
2022-11-07T05:29:46.298Z,99830.16
2022-11-07T05:32:12.853Z,99828.91
2022-11-07T05:34:39.546Z,99828.88
2022-11-07T05:37:09.885Z,99825.88
2022-11-07T05:39:36.907Z,99825.28
2022-11-07T05:42:03.909Z,99827.41
2022-11-07T05:44:30.585Z,99833.13
2022-11-07T05:46:57.902Z,99822.25
2022-11-07T05:49:24.786Z,99819.63
2022-11-07T05:51:51.272Z,99823.97
2022-11-07T05:54:17.709Z,99815.50
2022-11-07T05:56:44.518Z,99823.81
2022-11-07T05:59:11.516Z,99831.00
2022-11-07T06:01:38.111Z,99838.94
2022-11-07T06:04:05.298Z,99831.84
2022-11-07T06:06:31.806Z,99836.13
2022-11-07T06:08:58.600Z,99841.44
2022-11-07T06:11:25.201Z,99839.50
2022-11-07T06:13:53.207Z,99846.75
2022-11-07T06:16:19.711Z,99844.16
2022-11-07T06:18:46.661Z,99855.41
2022-11-07T06:21:14.040Z,99857.78
2022-11-07T06:23:40.659Z,99850.97
2022-11-07T06:26:07.257Z,99852.81
2022-11-07T06:28:33.882Z,99856.69
2022-11-07T06:31:01.299Z,99862.69
2022-11-07T06:33:29.861Z,99852.41
2022-11-07T06:35:57.039Z,99850.72
2022-11-07T06:38:24.895Z,99860.06
2022-11-07T06:40:51.508Z,99856.28
2022-11-07T06:43:19.890Z,99854.06
2022-11-07T06:45:47.715Z,99844.19
2022-11-07T06:48:15.109Z,99843.91
2022-11-07T06:50:41.625Z,99841.94
2022-11-07T06:53:10.777Z,99844.31
2022-11-07T06:55:38.542Z,99847.66
2022-11-07T06:58:05.543Z,99850.31
2022-11-07T07:00:33.866Z,99851.72
2022-11-07T07:03:00.639Z,99847.41
2022-11-07T07:05:27.632Z,99842.66
2022-11-07T07:07:55.787Z,99853.81
2022-11-07T07:10:24.804Z,99858.09
2022-11-07T07:12:51.783Z,99866.06
2022-11-07T07:15:18.292Z,99854.38
2022-11-07T07:17:44.746Z,99850.88
2022-11-07T07:20:11.637Z,99853.25
2022-11-07T07:22:38.174Z,99857.72
2022-11-07T07:25:05.071Z,99856.88
2022-11-07T07:27:31.538Z,99853.94
2022-11-07T07:29:58.095Z,99856.44
2022-11-07T07:32:25.232Z,99855.84
2022-11-07T07:34:52.289Z,99858.22
2022-11-07T07:37:18.877Z,99854.03
2022-11-07T07:39:45.389Z,99858.47
2022-11-07T07:42:12.041Z,99853.06
2022-11-07T07:44:38.716Z,99839.53
2022-11-07T07:47:10.934Z,99851.22
2022-11-07T07:49:37.880Z,99844.97
2022-11-07T07:52:04.752Z,99852.91
2022-11-07T07:54:31.357Z,99846.75
2022-11-07T07:56:57.866Z,99857.75
2022-11-07T07:59:24.514Z,99856.47
2022-11-07T08:01:56.518Z,99852.31
2022-11-07T08:04:23.256Z,99849.50
2022-11-07T08:06:49.726Z,99852.84
2022-11-07T08:09:16.252Z,99846.69
2022-11-07T08:11:42.676Z,99859.41
2022-11-07T08:14:09.112Z,99846.72
2022-11-07T08:16:35.606Z,99850.59
2022-11-07T08:19:02.103Z,99852.94
2022-11-07T08:21:29.355Z,99843.34
2022-11-07T08:23:56.895Z,99848.34
2022-11-07T08:26:23.394Z,99851.84
2022-11-07T08:28:49.911Z,99854.44
2022-11-07T08:31:16.450Z,99847.63
2022-11-07T08:33:43.022Z,99845.06
2022-11-07T08:36:10.106Z,99845.44
2022-11-07T08:38:37.049Z,99846.41
2022-11-07T08:41:04.381Z,99844.63
2022-11-07T08:43:31.057Z,99841.75
2022-11-07T08:45:57.842Z,99846.88
2022-11-07T08:48:24.522Z,99840.94
2022-11-07T08:50:53.050Z,99851.19
2022-11-07T08:53:20.130Z,99846.56
2022-11-07T08:55:47.094Z,99844.06
2022-11-07T08:58:15.256Z,99849.88
2022-11-07T09:00:42.080Z,99845.00
2022-11-07T09:03:43.991Z,99845.34
2022-11-07T09:05:58.276Z,99853.34
2022-11-07T09:08:24.865Z,99848.84
2022-11-07T09:10:51.538Z,99850.75
2022-11-07T09:13:21.050Z,99843.31
2022-11-07T09:15:51.399Z,99843.00
2022-11-07T09:18:19.098Z,99841.69
2022-11-07T09:20:45.795Z,99836.53
2022-11-07T09:23:12.421Z,99843.78
2022-11-07T09:25:38.862Z,99833.94
2022-11-07T09:28:05.740Z,99835.63
2022-11-07T09:30:32.455Z,99828.69
2022-11-07T09:32:59.063Z,99829.16
2022-11-07T09:35:25.685Z,99828.84
2022-11-07T09:37:52.463Z,99835.00
2022-11-07T09:40:44.155Z,99830.00
2022-11-07T09:43:29.331Z,99828.69
2022-11-07T09:46:05.139Z,99819.34
2022-11-07T09:48:37.669Z,99812.31
2022-11-07T09:51:04.571Z,99814.00
2022-11-07T09:53:44.082Z,99804.66
2022-11-07T09:56:12.714Z,99804.00
2022-11-07T09:58:45.114Z,99804.00
2022-11-07T10:01:14.236Z,99805.34
2022-11-07T10:03:52.847Z,99799.34
2022-11-07T10:06:45.272Z,99803.50
2022-11-07T10:09:55.990Z,99805.00
2022-11-07T10:12:44.753Z,99797.53
2022-11-07T10:15:32.326Z,99792.38
2022-11-07T10:18:16.327Z,99790.03
2022-11-07T10:21:40.250Z,99800.22
2022-11-07T10:24:17.862Z,99797.03
2022-11-07T10:26:45.306Z,99790.72
2022-11-07T10:29:18.365Z,99793.19
2022-11-07T10:31:56.183Z,99799.88
2022-11-07T10:34:36.302Z,99798.34
2022-11-07T10:37:04.109Z,99788.69
2022-11-07T10:39:31.443Z,99793.88
2022-11-07T10:42:04.183Z,99781.38
2022-11-07T10:44:31.027Z,99779.72
2022-11-07T10:46:57.667Z,99780.06
2022-11-07T10:49:29.701Z,99777.72
2022-11-07T10:52:07.473Z,99780.53
2022-11-07T10:54:34.112Z,99779.53
2022-11-07T10:57:09.416Z,99764.41
2022-11-07T11:00:08.196Z,99770.72
2022-11-07T11:02:47.750Z,99779.56
2022-11-07T11:05:26.575Z,99781.38
2022-11-07T11:07:56.162Z,99777.91
2022-11-07T11:10:30.288Z,99782.53
2022-11-07T11:12:57.852Z,99774.72
2022-11-07T11:15:30.116Z,99785.53
2022-11-07T11:18:05.627Z,99780.06
2022-11-07T11:20:36.361Z,99771.22
2022-11-07T11:23:06.145Z,99783.66
2022-11-07T11:25:43.585Z,99778.94
2022-11-07T11:28:15.925Z,99787.97
2022-11-07T11:30:43.422Z,99788.50
2022-11-07T11:33:17.633Z,99784.81
2022-11-07T11:35:52.005Z,99785.66
2022-11-07T11:38:29.275Z,99783.91
2022-11-07T11:41:06.098Z,99793.66
2022-11-07T11:43:44.343Z,99789.16
2022-11-07T11:46:32.277Z,99795.94
2022-11-07T11:49:05.158Z,99796.47
2022-11-07T11:51:41.038Z,99796.88
2022-11-07T11:54:12.801Z,99800.81
2022-11-07T11:56:51.243Z,99805.84
2022-11-07T11:59:30.445Z,99798.88
2022-11-07T12:02:46.036Z,99798.44
2022-11-07T12:05:15.319Z,99801.13
2022-11-07T12:07:57.144Z,99803.56
2022-11-07T12:10:29.199Z,99792.69
2022-11-07T12:13:07.759Z,99791.16
2022-11-07T12:15:43.051Z,99792.31
2022-11-07T12:18:09.418Z,99795.47
2022-11-07T12:20:49.919Z,99796.50
2022-11-07T12:23:56.251Z,99795.16
2022-11-07T12:26:44.389Z,99791.09
2022-11-07T12:29:24.378Z,99793.97
2022-11-07T12:32:14.475Z,99796.28
2022-11-07T12:34:48.023Z,99794.66
2022-11-07T12:37:45.821Z,99786.16
2022-11-07T12:40:37.827Z,99795.41
2022-11-07T12:43:25.836Z,99788.31
2022-11-07T12:46:07.779Z,99799.63
2022-11-07T12:48:46.477Z,99792.63
2022-11-07T12:51:57.092Z,99805.63
2022-11-07T12:54:48.359Z,99795.50
2022-11-07T12:57:33.631Z,99796.63
2022-11-07T13:00:30.748Z,99804.63
2022-11-07T13:03:09.209Z,99798.06
2022-11-07T13:06:15.293Z,99806.56
2022-11-07T13:08:51.829Z,99797.41
2022-11-07T13:11:24.658Z,99805.94
2022-11-07T13:14:12.951Z,99805.88
2022-11-07T13:16:50.481Z,99812.16
2022-11-07T13:19:34.924Z,99814.47
2022-11-07T13:22:24.642Z,99826.03
2022-11-07T13:25:07.637Z,99817.75
2022-11-07T13:27:38.935Z,99818.09
2022-11-07T13:30:17.368Z,99820.88
2022-11-07T13:32:45.962Z,99813.47
2022-11-07T13:35:31.197Z,99815.44
2022-11-07T13:38:08.564Z,99821.44
2022-11-07T13:40:39.779Z,99830.00
2022-11-07T13:43:18.946Z,99821.94
2022-11-07T13:45:45.679Z,99824.09
2022-11-07T13:48:22.498Z,99814.63
2022-11-07T13:50:59.362Z,99812.09
2022-11-07T13:53:33.229Z,99826.06
2022-11-07T13:56:34.812Z,99826.38
2022-11-07T13:59:03.776Z,99828.66
2022-11-07T14:01:41.376Z,99824.72
2022-11-07T14:04:18.807Z,99833.94
2022-11-07T14:06:45.848Z,99836.72
2022-11-07T14:09:15.206Z,99835.81
2022-11-07T14:11:41.786Z,99836.38
2022-11-07T14:14:08.686Z,99832.19
2022-11-07T14:16:35.327Z,99836.97
2022-11-07T14:19:07.152Z,99841.44
2022-11-07T14:21:35.522Z,99838.66
2022-11-07T14:24:02.715Z,99845.41
2022-11-07T14:26:32.759Z,99848.38
2022-11-07T14:29:00.881Z,99846.03
2022-11-07T14:31:32.595Z,99843.66
2022-11-07T14:34:01.789Z,99847.91
2022-11-07T14:36:31.446Z,99840.56
2022-11-07T14:39:05.202Z,99844.97
2022-11-07T14:41:31.789Z,99839.75
2022-11-07T14:44:03.035Z,99840.03
2022-11-07T14:46:29.909Z,99853.47
2022-11-07T14:48:59.637Z,99847.22
2022-11-07T14:51:28.032Z,99849.81
2022-11-07T14:54:04.460Z,99850.72
2022-11-07T14:56:35.920Z,99868.47
2022-11-07T14:59:02.614Z,99871.56
2022-11-07T15:01:32.068Z,99875.59
2022-11-07T15:04:23.855Z,99873.91
2022-11-07T15:06:50.668Z,99872.34
2022-11-07T15:09:17.084Z,99871.47
2022-11-07T15:11:57.095Z,99868.81
2022-11-07T15:14:35.980Z,99873.75
2022-11-07T15:17:05.739Z,99871.56
2022-11-07T15:19:33.748Z,99862.78
2022-11-07T15:22:03.207Z,99867.91
2022-11-07T15:24:47.159Z,99874.75
2022-11-07T15:27:13.690Z,99872.47
2022-11-07T15:29:49.890Z,99882.84
2022-11-07T15:32:19.686Z,99878.75
2022-11-07T15:37:36.221Z,99879.53
2022-11-07T15:40:13.013Z,99880.75
2022-11-07T15:42:39.567Z,99882.16
2022-11-07T15:45:06.346Z,99880.19
2022-11-07T15:47:33.287Z,99886.31
2022-11-07T15:49:59.833Z,99886.88
2022-11-07T15:52:26.273Z,99894.66
2022-11-07T15:54:52.689Z,99896.06
2022-11-07T15:57:19.721Z,99901.97
2022-11-07T15:59:46.231Z,99892.28
2022-11-07T16:02:16.674Z,99896.03
2022-11-07T16:04:43.822Z,99898.69
2022-11-07T16:07:16.983Z,99897.00
2022-11-07T16:09:43.492Z,99900.91
2022-11-07T16:12:13.314Z,99899.41
2022-11-07T16:14:44.692Z,99902.06
2022-11-07T16:17:13.141Z,99904.31
2022-11-07T16:19:41.348Z,99900.44
2022-11-07T16:22:11.103Z,99908.84
2022-11-07T16:24:37.877Z,99911.94
2022-11-07T16:27:04.806Z,99916.09
2022-11-07T16:29:31.999Z,99916.22
2022-11-07T16:31:58.854Z,99915.41
2022-11-07T16:34:25.459Z,99920.41
2022-11-07T16:36:51.945Z,99915.09
2022-11-07T16:39:20.997Z,99921.81
2022-11-07T16:41:48.818Z,99924.75
2022-11-07T16:44:15.434Z,99928.19
2022-11-07T16:46:42.623Z,99925.97
2022-11-07T16:49:35.152Z,99926.81
2022-11-07T16:52:01.647Z,99925.31
2022-11-07T16:54:28.808Z,99930.06
2022-11-07T16:56:56.454Z,99931.41
2022-11-07T16:59:24.607Z,99930.50
2022-11-07T17:01:52.189Z,99939.97
2022-11-07T17:04:19.009Z,99932.44
2022-11-07T17:06:47.697Z,99933.84
2022-11-07T17:09:19.399Z,99943.16
2022-11-07T17:11:46.544Z,99935.09
2022-11-07T17:14:13.251Z,99937.50
2022-11-07T17:16:48.109Z,99933.19
2022-11-07T17:19:15.568Z,99934.00
2022-11-07T17:21:49.348Z,99933.41
2022-11-07T17:24:19.239Z,99941.16
2022-11-07T17:26:45.858Z,99946.47
2022-11-07T17:29:13.996Z,99941.16
2022-11-07T17:31:41.709Z,99941.47
2022-11-07T17:34:08.274Z,99936.59
2022-11-07T17:36:38.204Z,99946.03
2022-11-07T17:39:10.969Z,99941.97
2022-11-07T17:41:38.712Z,99937.34
2022-11-07T17:44:05.408Z,99939.66
2022-11-07T17:46:33.642Z,99939.91
2022-11-07T17:49:02.494Z,99942.41
2022-11-07T17:51:29.794Z,99938.63
2022-11-07T17:53:57.144Z,99934.66
2022-11-07T17:56:26.694Z,99938.47
2022-11-07T17:58:58.175Z,99933.72
2022-11-07T18:01:27.070Z,99932.78
2022-11-07T18:03:54.823Z,99928.28
2022-11-07T18:06:23.489Z,99928.69
2022-11-07T18:08:55.001Z,99930.66
2022-11-07T18:11:23.611Z,99923.41
2022-11-07T18:13:50.777Z,99925.81
2022-11-07T18:16:23.613Z,99928.59
2022-11-07T18:18:51.022Z,99941.09
2022-11-07T18:21:17.601Z,99947.53
2022-11-07T18:23:44.598Z,99940.84
2022-11-07T18:26:13.721Z,99939.69
2022-11-07T18:28:40.842Z,99942.06
2022-11-07T18:31:15.717Z,99941.81
2022-11-07T18:33:42.672Z,99939.59
2022-11-07T18:36:11.471Z,99943.09
2022-11-07T18:38:39.019Z,99941.84
2022-11-07T18:41:11.697Z,99940.88
2022-11-07T18:43:38.941Z,99964.38
2022-11-07T18:46:09.046Z,99954.84
2022-11-07T18:48:37.303Z,99954.31
2022-11-07T18:51:07.950Z,99954.75
2022-11-07T18:53:34.464Z,99953.94
2022-11-07T18:56:03.498Z,99961.34
2022-11-07T18:58:31.711Z,99953.28
2022-11-07T19:01:08.496Z,99955.66
2022-11-07T19:03:35.441Z,99962.22
2022-11-07T19:06:04.556Z,99965.56
2022-11-07T19:08:33.996Z,99953.97
2022-11-07T19:11:02.060Z,99959.56
2022-11-07T19:13:29.449Z,99960.81
2022-11-07T19:15:56.343Z,99968.91
2022-11-07T19:18:22.956Z,99966.97
2022-11-07T19:20:52.643Z,99972.28
2022-11-07T19:23:19.257Z,99978.25
2022-11-07T19:25:46.132Z,99972.53
2022-11-07T19:28:12.568Z,99975.19
2022-11-07T19:30:39.693Z,99973.63
2022-11-07T19:33:08.140Z,99978.81
2022-11-07T19:35:36.343Z,99982.03
2022-11-07T19:38:07.711Z,99982.88
2022-11-07T19:40:38.568Z,99979.13
2022-11-07T19:43:08.586Z,99978.41
2022-11-07T19:45:39.614Z,99968.34
2022-11-07T19:48:06.256Z,99973.13
2022-11-07T19:50:32.708Z,99965.41
2022-11-07T19:52:59.172Z,99975.34
2022-11-07T19:55:25.735Z,99976.19
2022-11-07T19:57:52.210Z,99982.59
2022-11-07T20:00:18.840Z,99973.38
2022-11-07T20:02:48.898Z,99971.56
2022-11-07T20:05:24.261Z,99981.19
2022-11-07T20:07:55.337Z,99975.34
2022-11-07T20:10:24.018Z,99976.47
2022-11-07T20:12:50.523Z,99978.84
2022-11-07T20:15:17.155Z,99984.97
2022-11-07T20:17:44.025Z,99980.94
2022-11-07T20:20:13.681Z,99979.53
2022-11-07T20:22:46.010Z,99981.75
2022-11-07T20:25:13.037Z,99983.16
2022-11-07T20:27:39.432Z,99979.28
2022-11-07T20:30:06.648Z,99978.81
2022-11-07T20:32:33.412Z,99974.09
2022-11-07T20:34:59.820Z,99978.56
2022-11-07T20:37:26.348Z,99975.75
2022-11-07T20:39:52.769Z,99982.31
2022-11-07T20:42:19.262Z,99980.22
2022-11-07T20:44:46.438Z,99979.13
2022-11-07T20:47:13.211Z,99977.88
2022-11-07T20:49:40.954Z,99985.66
2022-11-07T20:52:07.746Z,99977.72
2022-11-07T20:54:35.422Z,99972.72
2022-11-07T20:57:02.020Z,99976.75
2022-11-07T20:59:33.979Z,99981.50
2022-11-07T21:02:03.642Z,99983.72
2022-11-07T21:04:44.439Z,99993.59
2022-11-07T21:07:19.884Z,99985.94
2022-11-07T21:09:46.692Z,99986.78
2022-11-07T21:12:13.174Z,99982.31
2022-11-07T21:14:41.663Z,99983.44
2022-11-07T21:17:09.320Z,99987.91
2022-11-07T21:19:35.850Z,99994.31
2022-11-07T21:22:04.135Z,99975.72
2022-11-07T21:24:30.931Z,99979.19
2022-11-07T21:26:57.886Z,99980.19
2022-11-07T21:29:29.323Z,99984.06
2022-11-07T21:31:56.487Z,99981.72
2022-11-07T21:34:23.068Z,99980.19
2022-11-07T21:36:49.726Z,99985.84
2022-11-07T21:39:17.397Z,99982.38
2022-11-07T21:41:43.858Z,99986.25
2022-11-07T21:44:12.051Z,99984.56
2022-11-07T21:46:38.521Z,99981.41
2022-11-07T21:49:06.200Z,99979.56
2022-11-07T21:51:34.422Z,99973.56
2022-11-07T21:54:02.417Z,99983.09
2022-11-07T21:56:34.501Z,99976.94
2022-11-07T21:59:03.350Z,99982.56
2022-11-07T22:01:34.855Z,99989.69
2022-11-07T22:04:07.317Z,99992.78
2022-11-07T22:06:36.976Z,99991.13
2022-11-07T22:09:03.883Z,99985.22
2022-11-07T22:11:30.363Z,99985.34
2022-11-07T22:13:56.783Z,99982.69
2022-11-07T22:16:23.517Z,99984.66
2022-11-07T22:18:50.025Z,99973.25
2022-11-07T22:21:19.588Z,99973.50
2022-11-07T22:23:46.357Z,99976.72
2022-11-07T22:26:15.377Z,99966.16
2022-11-07T22:28:45.856Z,99969.44
2022-11-07T22:31:17.623Z,99970.44
2022-11-07T22:33:44.433Z,99968.44
2022-11-07T22:36:12.042Z,99967.06
2022-11-07T22:38:39.223Z,99969.00
2022-11-07T22:41:07.424Z,99967.34
2022-11-07T22:43:34.209Z,99969.44
2022-11-07T22:46:02.955Z,99965.63
2022-11-07T22:48:29.550Z,99970.06
2022-11-07T22:51:13.090Z,99964.13
2022-11-07T22:53:40.003Z,99969.41
2022-11-07T22:56:19.743Z,99966.88
2022-11-07T22:58:47.137Z,99972.28
2022-11-07T23:01:16.616Z,99969.09
2022-11-07T23:03:43.112Z,99973.88
2022-11-07T23:06:09.783Z,99967.59
2022-11-07T23:08:36.601Z,99966.38
2022-11-07T23:14:00.657Z,99961.16
2022-11-07T23:16:35.219Z,99966.41
2022-11-07T23:19:04.310Z,99972.00
2022-11-07T23:21:31.423Z,99971.75
2022-11-07T23:23:58.923Z,99968.78
2022-11-07T23:26:26.828Z,99977.31
2022-11-07T23:28:53.277Z,99968.94
2022-11-07T23:31:20.163Z,99976.91
2022-11-07T23:33:46.622Z,99976.78
2022-11-07T23:36:14.988Z,99972.38
2022-11-07T23:38:42.497Z,99979.19
2022-11-07T23:41:11.796Z,99974.22
2022-11-07T23:43:38.450Z,99983.69
2022-11-07T23:46:24.100Z,99973.25
2022-11-07T23:49:14.191Z,99981.78
2022-11-07T23:51:41.966Z,99988.16
2022-11-07T23:54:28.086Z,99982.84
2022-11-07T23:56:54.527Z,99984.50
2022-11-07T23:59:39.968Z,99986.88
